createdAt,value
2017-12-13T00:01:12.320Z,97808.51
2017-12-13T00:03:40.600Z,97813.03
2017-12-13T00:06:09.649Z,97813.80
2017-12-13T00:08:37.945Z,97816.86
2017-12-13T00:11:06.238Z,97818.16
2017-12-13T00:13:34.543Z,97821.58
2017-12-13T00:16:02.836Z,97825.83
2017-12-13T00:18:31.120Z,97823.84
2017-12-13T00:20:59.408Z,97825.89
2017-12-13T00:23:27.690Z,97825.44
2017-12-13T00:25:55.991Z,97821.82
2017-12-13T00:28:24.279Z,97823.16
2017-12-13T00:30:52.599Z,97812.39
2017-12-13T00:33:20.889Z,97820.74
2017-12-13T00:35:49.187Z,97825.06
2017-12-13T00:38:17.469Z,97822.28
2017-12-13T00:40:45.762Z,97815.67
2017-12-13T00:43:14.048Z,97815.34
2017-12-13T00:45:43.124Z,97818.54
2017-12-13T00:48:11.447Z,97823.46
2017-12-13T00:50:39.740Z,97822.66
2017-12-13T00:53:08.050Z,97822.02
2017-12-13T00:55:36.336Z,97823.45
2017-12-13T00:58:04.616Z,97820.80
2017-12-13T01:00:32.906Z,97811.60
2017-12-13T01:03:01.201Z,97816.60
2017-12-13T01:05:29.487Z,97813.84
2017-12-13T01:07:57.811Z,97813.50
2017-12-13T01:10:26.100Z,97815.80
2017-12-13T01:12:54.369Z,97812.30
2017-12-13T01:15:22.677Z,97812.63
2017-12-13T01:17:50.957Z,97812.16
2017-12-13T01:20:19.248Z,97810.17
2017-12-13T01:22:47.539Z,97810.90
2017-12-13T01:25:15.817Z,97817.80
2017-12-13T01:27:44.096Z,97818.53
2017-12-13T01:30:12.381Z,97820.03
2017-12-13T01:32:40.652Z,97820.11
2017-12-13T01:35:08.981Z,97816.53
2017-12-13T01:37:37.268Z,97818.80
2017-12-13T01:40:05.572Z,97818.97
2017-12-13T01:42:33.864Z,97827.64
2017-12-13T01:45:02.157Z,97829.33
2017-12-13T01:47:30.443Z,97828.08
2017-12-13T01:49:58.721Z,97822.59
2017-12-13T01:52:27.004Z,97822.33
2017-12-13T01:54:55.301Z,97827.00
2017-12-13T01:57:23.576Z,97814.23
2017-12-13T01:59:51.872Z,97809.38
2017-12-13T02:02:20.154Z,97805.30
2017-12-13T02:04:48.432Z,97799.91
2017-12-13T02:07:16.707Z,97794.86
2017-12-13T02:09:45.000Z,97794.77
2017-12-13T02:12:13.338Z,97797.66
2017-12-13T02:14:41.622Z,97790.90
2017-12-13T02:17:09.907Z,97792.75
2017-12-13T02:19:38.213Z,97790.73
2017-12-13T02:22:06.486Z,97780.12
2017-12-13T02:24:34.769Z,97782.57
2017-12-13T02:27:03.048Z,97778.42
2017-12-13T02:29:31.377Z,97765.21
2017-12-13T02:31:59.677Z,97768.09
2017-12-13T02:34:27.965Z,97778.54
2017-12-13T02:36:56.251Z,97770.08
2017-12-13T02:39:24.975Z,97778.27
2017-12-13T02:41:54.029Z,97767.30
2017-12-13T02:44:22.314Z,97762.63
2017-12-13T02:46:50.593Z,97750.48
2017-12-13T02:49:18.884Z,97750.56
2017-12-13T02:51:47.933Z,97748.28
2017-12-13T02:54:16.216Z,97752.31
2017-12-13T02:56:44.505Z,97747.01
2017-12-13T02:59:12.792Z,97750.16
2017-12-13T03:01:41.080Z,97749.22
2017-12-13T03:04:09.398Z,97745.31
2017-12-13T03:06:37.685Z,97739.59
2017-12-13T03:09:05.969Z,97744.23
2017-12-13T03:11:34.257Z,97740.43
2017-12-13T03:14:02.540Z,97731.16
2017-12-13T03:16:30.856Z,97732.59
2017-12-13T03:18:59.137Z,97735.03
2017-12-13T03:21:28.190Z,97738.31
2017-12-13T03:23:56.477Z,97732.92
2017-12-13T03:26:24.784Z,97728.42
2017-12-13T03:28:53.065Z,97727.05
2017-12-13T03:31:21.505Z,97725.94
2017-12-13T03:33:49.785Z,97713.48
2017-12-13T03:36:18.076Z,97706.34
2017-12-13T03:38:48.117Z,97696.47
2017-12-13T03:41:16.412Z,97689.99
2017-12-13T03:43:44.696Z,97693.78
2017-12-13T03:46:12.977Z,97691.50
2017-12-13T03:48:41.293Z,97679.72
2017-12-13T03:51:09.576Z,97687.41
2017-12-13T03:53:37.871Z,97697.06
2017-12-13T03:56:06.152Z,97699.95
2017-12-13T03:58:34.457Z,97700.02
2017-12-13T04:01:02.773Z,97696.33
2017-12-13T04:03:31.065Z,97691.45
2017-12-13T04:05:59.361Z,97688.91
2017-12-13T04:08:27.641Z,97685.55
2017-12-13T04:10:55.959Z,97685.63
2017-12-13T04:13:24.240Z,97695.79
2017-12-13T04:15:52.539Z,97701.13
2017-12-13T04:18:21.889Z,97703.03
2017-12-13T04:20:50.176Z,97702.80
2017-12-13T04:23:18.496Z,97701.19
2017-12-13T04:25:46.779Z,97698.68
2017-12-13T04:28:15.078Z,97691.81
2017-12-13T04:30:43.359Z,97688.17
2017-12-13T04:33:11.635Z,97681.92
2017-12-13T04:35:39.919Z,97668.34
2017-12-13T04:38:08.228Z,97667.71
2017-12-13T04:40:36.524Z,97665.33
2017-12-13T04:43:04.808Z,97658.67
2017-12-13T04:45:33.109Z,97649.05
2017-12-13T04:48:01.401Z,97645.98
2017-12-13T04:50:29.676Z,97637.21
2017-12-13T04:52:57.961Z,97645.77
2017-12-13T04:55:26.256Z,97635.92
2017-12-13T04:57:54.532Z,97637.77
2017-12-13T05:00:22.824Z,97636.69
2017-12-13T05:02:51.120Z,97632.91
2017-12-13T05:05:19.406Z,97633.17
2017-12-13T05:07:48.449Z,97632.59
2017-12-13T05:10:17.181Z,97624.76
2017-12-13T05:12:45.457Z,97623.63
2017-12-13T05:15:14.764Z,97611.88
2017-12-13T05:17:43.069Z,97621.10
2017-12-13T05:20:11.364Z,97620.37
2017-12-13T05:22:39.631Z,97626.61
2017-12-13T05:25:07.911Z,97597.10
2017-12-13T05:27:36.179Z,97617.20
2017-12-13T05:30:04.447Z,97621.28
2017-12-13T05:32:32.726Z,97621.38
2017-12-13T05:35:01.012Z,97610.41
2017-12-13T05:37:29.306Z,97611.05
2017-12-13T05:39:57.591Z,97598.41
2017-12-13T05:42:25.868Z,97603.06
2017-12-13T05:44:54.160Z,97603.12
2017-12-13T05:47:22.440Z,97605.22
2017-12-13T05:49:50.720Z,97601.03
2017-12-13T05:52:19.002Z,97598.97
2017-12-13T05:54:48.964Z,97592.58
2017-12-13T05:57:17.247Z,97603.25
2017-12-13T05:59:45.519Z,97591.32
2017-12-13T06:02:13.805Z,97591.77
2017-12-13T06:04:42.089Z,97601.23
2017-12-13T06:07:10.368Z,97594.83
2017-12-13T06:09:38.668Z,97594.78
2017-12-13T06:12:06.957Z,97598.42
2017-12-13T06:14:35.977Z,97593.46
2017-12-13T06:17:04.273Z,97588.93
2017-12-13T06:19:32.549Z,97581.29
2017-12-13T06:22:00.830Z,97583.03
2017-12-13T06:24:29.101Z,97576.63
2017-12-13T06:26:57.390Z,97573.06
2017-12-13T06:29:25.681Z,97570.47
2017-12-13T06:31:53.965Z,97560.16
2017-12-13T06:34:22.252Z,97556.37
2017-12-13T06:36:51.309Z,97559.59
2017-12-13T06:39:19.617Z,97548.27
2017-12-13T06:41:47.899Z,97547.81
2017-12-13T06:44:16.175Z,97542.89
2017-12-13T06:46:44.458Z,97542.11
2017-12-13T06:49:13.522Z,97540.84
2017-12-13T06:51:41.826Z,97538.66
2017-12-13T06:54:10.912Z,97537.41
2017-12-13T06:56:39.844Z,97539.03
2017-12-13T06:59:08.128Z,97520.64
2017-12-13T07:01:36.417Z,97529.69
2017-12-13T07:04:04.727Z,97526.88
2017-12-13T07:06:33.012Z,97524.79
2017-12-13T07:09:01.310Z,97516.49
2017-12-13T07:11:29.633Z,97506.67
2017-12-13T07:13:58.694Z,97499.15
2017-12-13T07:16:26.975Z,97498.67
2017-12-13T07:18:55.254Z,97497.67
2017-12-13T07:21:23.541Z,97502.16
2017-12-13T07:23:51.842Z,97493.41
2017-12-13T07:26:21.178Z,97485.13
2017-12-13T07:28:49.454Z,97486.92
2017-12-13T07:31:18.414Z,97484.81
2017-12-13T07:33:46.701Z,97481.45
2017-12-13T07:36:14.997Z,97479.47
2017-12-13T07:38:43.287Z,97480.14
2017-12-13T07:41:12.156Z,97475.45
2017-12-13T07:43:40.432Z,97465.17
2017-12-13T07:46:09.479Z,97463.37
2017-12-13T07:48:37.761Z,97457.05
2017-12-13T07:51:06.053Z,97454.28
2017-12-13T07:53:34.344Z,97451.09
2017-12-13T07:56:02.615Z,97442.27
2017-12-13T07:58:30.900Z,97437.22
2017-12-13T08:00:59.214Z,97433.37
2017-12-13T08:03:27.497Z,97435.38
2017-12-13T08:05:55.794Z,97430.30
2017-12-13T08:08:24.097Z,97421.94
2017-12-13T08:10:52.387Z,97425.25
2017-12-13T08:13:21.437Z,97419.84
2017-12-13T08:15:49.737Z,97402.84
2017-12-13T08:18:18.385Z,97398.65
2017-12-13T08:20:46.669Z,97401.59
2017-12-13T08:23:14.950Z,97398.05
2017-12-13T08:25:43.241Z,97391.52
2017-12-13T08:28:11.522Z,97389.90
2017-12-13T08:30:39.817Z,97386.48
2017-12-13T08:33:08.125Z,97376.94
2017-12-13T08:35:36.405Z,97369.19
2017-12-13T08:38:04.705Z,97361.50
2017-12-13T08:40:33.004Z,97361.48
2017-12-13T08:43:01.286Z,97354.64
2017-12-13T08:45:29.570Z,97346.70
2017-12-13T08:47:57.940Z,97352.69
2017-12-13T08:50:26.229Z,97348.37
2017-12-13T08:52:54.516Z,97335.05
2017-12-13T08:55:23.569Z,97336.73
2017-12-13T08:57:51.859Z,97324.56
2017-12-13T09:00:20.153Z,97318.66
2017-12-13T09:02:48.449Z,97309.75
2017-12-13T09:05:17.506Z,97298.47
2017-12-13T09:07:45.789Z,97291.83
2017-12-13T09:10:14.090Z,97287.41
2017-12-13T09:12:43.156Z,97289.24
2017-12-13T09:15:11.453Z,97286.95
2017-12-13T09:17:39.745Z,97278.33
2017-12-13T09:20:08.852Z,97262.27
2017-12-13T09:22:37.161Z,97262.78
2017-12-13T09:25:05.441Z,97268.12
2017-12-13T09:27:33.721Z,97260.45
2017-12-13T09:30:02.066Z,97267.75
2017-12-13T09:32:30.389Z,97258.18
2017-12-13T09:34:58.659Z,97257.30
2017-12-13T09:37:27.012Z,97253.55
2017-12-13T09:39:55.284Z,97247.55
2017-12-13T09:42:23.572Z,97243.89
2017-12-13T09:44:51.867Z,97236.85
2017-12-13T09:47:20.167Z,97234.53
2017-12-13T09:49:48.490Z,97226.14
2017-12-13T09:52:17.764Z,97218.59
2017-12-13T09:54:46.822Z,97201.77
2017-12-13T09:57:15.090Z,97195.40
2017-12-13T09:59:43.390Z,97200.08
2017-12-13T10:02:11.692Z,97179.80
2017-12-13T10:04:40.080Z,97195.36
2017-12-13T10:07:08.367Z,97185.74
2017-12-13T10:09:37.227Z,97179.84
2017-12-13T10:12:06.349Z,97176.88
2017-12-13T10:14:35.097Z,97173.05
2017-12-13T10:17:03.381Z,97165.08
2017-12-13T10:19:32.473Z,97154.88
2017-12-13T10:22:00.774Z,97148.14
2017-12-13T10:24:29.045Z,97140.81
2017-12-13T10:26:57.385Z,97130.39
2017-12-13T10:29:26.757Z,97126.25
2017-12-13T10:31:55.046Z,97112.72
2017-12-13T10:34:23.328Z,97105.23
2017-12-13T10:36:51.611Z,97097.64
2017-12-13T10:39:19.909Z,97090.92
2017-12-13T10:41:48.714Z,97089.63
2017-12-13T10:44:17.795Z,97076.07
2017-12-13T10:46:46.205Z,97069.74
2017-12-13T10:49:14.480Z,97057.55
2017-12-13T10:51:42.769Z,97064.66
2017-12-13T10:54:11.046Z,97065.95
2017-12-13T10:56:40.830Z,97066.37
2017-12-13T10:59:09.108Z,97057.52
2017-12-13T11:01:37.397Z,97051.13
2017-12-13T11:04:05.680Z,97040.59
2017-12-13T11:06:33.957Z,97040.27
2017-12-13T11:09:02.250Z,97018.33
2017-12-13T11:11:30.543Z,97011.25
2017-12-13T11:13:58.841Z,97009.89
2017-12-13T11:16:27.455Z,97011.16
2017-12-13T11:18:55.848Z,96995.05
2017-12-13T11:21:24.253Z,97001.29
2017-12-13T11:23:52.584Z,96988.55
2017-12-13T11:26:20.912Z,96984.81
2017-12-13T11:28:49.341Z,96978.08
2017-12-13T11:31:17.786Z,96965.82
2017-12-13T11:33:46.238Z,96958.63
2017-12-13T11:36:14.540Z,96950.14
2017-12-13T11:38:42.817Z,96943.84
2017-12-13T11:41:11.121Z,96931.63
2017-12-13T11:43:39.416Z,96915.98
2017-12-13T11:46:07.728Z,96901.31
2017-12-13T11:48:36.020Z,96892.06
2017-12-13T11:51:04.338Z,96883.27
2017-12-13T11:53:32.641Z,96880.34
2017-12-13T11:56:00.926Z,96884.84
2017-12-13T11:58:29.222Z,96867.98
2017-12-13T12:00:57.521Z,96860.48
2017-12-13T12:03:25.862Z,96855.38
2017-12-13T12:05:54.156Z,96851.23
2017-12-13T12:08:22.433Z,96841.51
2017-12-13T12:10:50.711Z,96839.41
2017-12-13T12:13:19.078Z,96828.09
2017-12-13T12:15:47.377Z,96820.45
2017-12-13T12:18:15.662Z,96811.20
2017-12-13T12:20:43.949Z,96803.58
2017-12-13T12:23:12.993Z,96798.08
2017-12-13T12:25:41.277Z,96792.17
2017-12-13T12:28:09.565Z,96777.47
2017-12-13T12:30:37.910Z,96770.70
2017-12-13T12:33:06.194Z,96761.48
2017-12-13T12:35:34.493Z,96755.57
2017-12-13T12:38:02.788Z,96747.95
2017-12-13T12:40:31.089Z,96736.16
2017-12-13T12:42:59.364Z,96724.37
2017-12-13T12:45:27.673Z,96721.36
2017-12-13T12:47:55.940Z,96719.28
2017-12-13T12:50:24.242Z,96707.05
2017-12-13T12:52:52.516Z,96691.45
2017-12-13T12:55:20.824Z,96680.94
2017-12-13T12:57:49.114Z,96677.13
2017-12-13T13:00:17.420Z,96671.23
2017-12-13T13:02:45.717Z,96669.11
2017-12-13T13:05:14.056Z,96659.03
2017-12-13T13:07:42.312Z,96654.80
2017-12-13T13:10:10.610Z,96642.58
2017-12-13T13:12:38.896Z,96599.89
2017-12-13T13:15:07.200Z,96634.98
2017-12-13T13:17:35.477Z,96619.81
2017-12-13T13:20:03.793Z,96623.61
2017-12-13T13:22:32.109Z,96610.94
2017-12-13T13:25:01.165Z,96603.38
2017-12-13T13:27:29.466Z,96593.23
2017-12-13T13:29:57.765Z,96605.81
2017-12-13T13:32:26.045Z,96594.86
2017-12-13T13:34:54.326Z,96594.06
2017-12-13T13:37:22.594Z,96583.03
2017-12-13T13:39:50.898Z,96589.84
2017-12-13T13:42:19.173Z,96588.58
2017-12-13T13:44:47.472Z,96583.94
2017-12-13T13:47:15.771Z,96585.14
2017-12-13T13:49:44.054Z,96571.70
2017-12-13T13:52:12.343Z,96575.52
2017-12-13T13:54:40.632Z,96566.66
2017-12-13T13:57:09.720Z,96565.39
2017-12-13T13:59:38.001Z,96561.59
2017-12-13T14:02:06.295Z,96558.64
2017-12-13T14:04:35.436Z,96554.85
2017-12-13T14:07:04.510Z,96546.84
2017-12-13T14:09:32.819Z,96534.20
2017-12-13T14:12:01.126Z,96544.30
2017-12-13T14:14:29.412Z,96540.94
2017-12-13T14:16:57.735Z,96536.34
2017-12-13T14:19:26.011Z,96529.98
2017-12-13T14:21:55.058Z,96525.38
2017-12-13T14:24:23.341Z,96516.95
2017-12-13T14:26:51.628Z,96521.61
2017-12-13T14:29:19.911Z,96523.28
2017-12-13T14:31:48.202Z,96522.02
2017-12-13T14:34:17.257Z,96512.30
2017-12-13T14:36:45.549Z,96510.64
2017-12-13T14:39:13.865Z,96510.22
2017-12-13T14:41:42.188Z,96498.84
2017-12-13T14:44:10.472Z,96504.73
2017-12-13T14:46:38.757Z,96501.36
2017-12-13T14:49:07.037Z,96493.80
2017-12-13T14:51:35.342Z,96497.16
2017-12-13T14:54:03.682Z,96495.03
2017-12-13T14:56:31.971Z,96491.23
2017-12-13T14:59:00.257Z,96486.62
2017-12-13T15:01:28.552Z,96482.40
2017-12-13T15:03:56.852Z,96471.84
2017-12-13T15:06:25.159Z,96469.34
2017-12-13T15:08:53.447Z,96463.87
2017-12-13T15:11:21.760Z,96462.61
2017-12-13T15:13:50.057Z,96461.31
2017-12-13T15:16:18.324Z,96459.22
2017-12-13T15:18:46.612Z,96454.57
2017-12-13T15:21:14.916Z,96448.28
2017-12-13T15:23:43.183Z,96443.65
2017-12-13T15:26:12.672Z,96443.23
2017-12-13T15:28:40.964Z,96439.01
2017-12-13T15:31:09.249Z,96439.02
2017-12-13T15:33:37.549Z,96439.02
2017-12-13T15:36:05.848Z,96434.78
2017-12-13T15:38:34.909Z,96433.10
2017-12-13T15:41:03.196Z,96423.43
2017-12-13T15:43:31.524Z,96417.11
2017-12-13T15:45:59.814Z,96409.94
2017-12-13T15:48:28.093Z,96410.80
2017-12-13T15:50:56.393Z,96408.27
2017-12-13T15:53:24.681Z,96402.36
2017-12-13T15:55:52.978Z,96403.63
2017-12-13T15:58:21.813Z,96400.25
2017-12-13T16:00:50.109Z,96401.53
2017-12-13T16:03:18.406Z,96396.91
2017-12-13T16:05:46.693Z,96391.42
2017-12-13T16:08:15.764Z,96398.98
2017-12-13T16:10:44.084Z,96389.73
2017-12-13T16:13:12.382Z,96395.62
2017-12-13T16:15:40.696Z,96386.80
2017-12-13T16:18:09.002Z,96380.87
2017-12-13T16:20:37.284Z,96375.84
2017-12-13T16:23:05.727Z,96363.22
2017-12-13T16:25:34.813Z,96376.67
2017-12-13T16:28:03.128Z,96367.41
2017-12-13T16:30:31.521Z,96369.09
2017-12-13T16:32:59.834Z,96361.53
2017-12-13T16:35:28.136Z,96359.40
2017-12-13T16:37:56.932Z,96348.44
2017-12-13T16:40:25.656Z,96348.02
2017-12-13T16:42:54.584Z,96340.43
2017-12-13T16:45:23.297Z,96335.81
2017-12-13T16:47:51.792Z,96329.91
2017-12-13T16:50:20.274Z,96326.98
2017-12-13T16:52:48.669Z,96325.30
2017-12-13T16:55:17.052Z,96325.72
2017-12-13T16:57:45.471Z,96317.28
2017-12-13T17:00:15.023Z,96322.77
2017-12-13T17:02:43.935Z,96313.08
2017-12-13T17:05:12.932Z,96310.98
2017-12-13T17:07:41.365Z,96302.56
2017-12-13T17:10:11.011Z,96296.65
2017-12-13T17:12:40.584Z,96302.53
2017-12-13T17:15:09.487Z,96297.91
2017-12-13T17:17:38.682Z,96294.13
2017-12-13T17:20:08.121Z,96289.49
2017-12-13T17:22:38.262Z,96287.80
2017-12-13T17:25:07.924Z,96285.69
2017-12-13T17:27:37.238Z,96280.23
2017-12-13T17:30:07.159Z,96276.84
2017-12-13T17:32:36.812Z,96268.41
2017-12-13T17:35:06.563Z,96254.49
2017-12-13T17:37:36.083Z,96252.83
2017-12-13T17:40:05.840Z,96243.11
2017-12-13T17:42:35.586Z,96243.55
2017-12-13T17:45:05.384Z,96231.34
2017-12-13T17:47:35.016Z,96222.47
2017-12-13T17:50:06.350Z,96208.98
2017-12-13T17:52:35.991Z,96208.09
2017-12-13T17:55:05.927Z,96197.55
2017-12-13T17:57:35.808Z,96192.88
2017-12-13T18:00:06.817Z,96180.22
2017-12-13T18:02:36.702Z,96173.92
2017-12-13T18:05:07.496Z,96165.47
2017-12-13T18:07:37.204Z,96164.58
2017-12-13T18:10:06.965Z,96161.69
2017-12-13T18:12:36.962Z,96165.07
2017-12-13T18:15:06.755Z,96157.09
2017-12-13T18:17:36.677Z,96157.55
2017-12-13T18:20:06.444Z,96156.29
2017-12-13T18:22:36.385Z,96142.44
2017-12-13T18:25:07.964Z,96138.64
2017-12-13T18:27:37.755Z,96120.45
2017-12-13T18:30:07.635Z,96120.09
2017-12-13T18:32:37.703Z,96112.05
2017-12-13T18:35:07.481Z,96100.73
2017-12-13T18:37:37.329Z,96097.38
2017-12-13T18:40:07.898Z,96077.63
2017-12-13T18:42:37.681Z,96076.73
2017-12-13T18:45:08.446Z,96078.41
2017-12-13T18:47:38.346Z,96068.72
2017-12-13T18:50:08.324Z,96066.99
2017-12-13T18:52:38.138Z,96059.42
2017-12-13T18:55:08.200Z,96048.05
2017-12-13T18:57:38.924Z,96034.64
2017-12-13T19:00:08.990Z,96032.92
2017-12-13T19:02:38.929Z,96036.75
2017-12-13T19:05:08.889Z,96019.87
2017-12-13T19:07:38.767Z,96013.14
2017-12-13T19:10:08.810Z,96014.78
2017-12-13T19:12:38.808Z,96005.94
2017-12-13T19:15:08.800Z,95995.88
2017-12-13T19:17:38.713Z,95989.09
2017-12-13T19:20:08.790Z,95989.08
2017-12-13T19:22:38.722Z,95975.17
2017-12-13T19:25:09.657Z,95967.56
2017-12-13T19:27:39.657Z,95964.67
2017-12-13T19:30:09.685Z,95959.56
2017-12-13T19:32:40.352Z,95946.90
2017-12-13T19:35:10.481Z,95940.22
2017-12-13T19:37:40.541Z,95934.23
2017-12-13T19:40:10.633Z,95928.02
2017-12-13T19:42:40.714Z,95916.64
2017-12-13T19:45:10.693Z,95917.44
2017-12-13T19:47:40.769Z,95913.70
2017-12-13T19:50:10.739Z,95906.88
2017-12-13T19:52:40.892Z,95906.88
2017-12-13T19:55:10.884Z,95892.66
2017-12-13T19:57:42.406Z,95880.73
2017-12-13T20:00:12.704Z,95871.12
2017-12-13T20:02:43.558Z,95862.70
2017-12-13T20:05:13.474Z,95852.11
2017-12-13T20:07:45.959Z,95834.02
2017-12-13T20:36:01.186Z,95749.70
2017-12-13T20:38:32.150Z,95726.45
2017-12-13T20:41:03.914Z,95713.09
2017-12-13T20:43:34.796Z,95708.89
2017-12-13T20:46:04.808Z,95700.75
2017-12-13T20:48:34.745Z,95703.14
2017-12-13T20:51:04.871Z,95699.84
2017-12-13T20:53:34.831Z,95693.82
2017-12-13T20:56:04.784Z,95675.97
2017-12-13T20:58:34.709Z,95681.75
2017-12-13T21:01:05.385Z,95670.77
2017-12-13T21:03:35.880Z,95653.00
2017-12-13T21:06:05.817Z,95647.53
2017-12-13T21:08:35.881Z,95642.70
2017-12-13T21:11:06.793Z,95632.55
2017-12-13T21:13:37.531Z,95632.13
2017-12-13T21:16:07.580Z,95619.77
2017-12-13T21:18:37.548Z,95621.11
2017-12-13T21:21:07.523Z,95607.13
2017-12-13T21:23:37.377Z,95597.92
2017-12-13T21:26:07.304Z,95595.20
2017-12-13T21:28:37.376Z,95585.16
2017-12-13T21:31:07.460Z,95581.78
2017-12-13T21:33:37.353Z,95574.59
2017-12-13T21:36:07.311Z,95569.17
2017-12-13T21:38:37.234Z,95554.79
2017-12-13T21:41:07.958Z,95533.37
2017-12-13T21:43:37.791Z,95526.14
2017-12-13T21:46:07.821Z,95521.91
2017-12-13T21:48:37.714Z,95510.63
2017-12-13T21:51:07.600Z,95497.81
2017-12-13T21:53:38.429Z,95484.81
2017-12-13T21:56:08.340Z,95481.02
2017-12-13T21:58:38.209Z,95476.90
2017-12-13T22:01:08.086Z,95464.21
2017-12-13T22:03:37.931Z,95452.34
2017-12-13T22:06:07.703Z,95462.84
2017-12-13T22:08:37.523Z,95444.44
2017-12-13T22:11:07.396Z,95451.52
2017-12-13T22:13:38.182Z,95446.72
2017-12-13T22:16:07.964Z,95434.93
2017-12-13T22:18:38.625Z,95432.78
2017-12-13T22:21:14.078Z,95338.88
2017-12-13T22:23:43.832Z,95428.45
2017-12-13T22:26:14.657Z,95426.66
2017-12-13T22:28:43.582Z,95429.08
2017-12-13T22:31:12.244Z,95425.58
2017-12-13T22:33:40.754Z,95432.00
2017-12-13T22:36:09.151Z,95429.08
2017-12-13T22:38:37.505Z,95423.55
2017-12-13T22:41:05.885Z,95426.47
2017-12-13T22:43:34.229Z,95430.64
2017-12-13T22:46:02.627Z,95417.77
2017-12-13T22:48:30.965Z,95416.23
2017-12-13T22:50:59.289Z,95407.98
2017-12-13T22:53:28.350Z,95397.98
2017-12-13T22:55:56.707Z,95397.67
2017-12-13T22:58:25.023Z,95384.00
2017-12-13T23:00:53.484Z,95381.36
2017-12-13T23:03:21.837Z,95378.58
2017-12-13T23:05:50.180Z,95364.62
2017-12-13T23:08:18.577Z,95364.40
2017-12-13T23:10:46.966Z,95364.72
2017-12-13T23:13:15.320Z,95360.92
2017-12-13T23:15:43.663Z,95366.02
2017-12-13T23:18:12.035Z,95374.00
2017-12-13T23:20:41.306Z,95382.80
2017-12-13T23:23:09.677Z,95385.14
2017-12-13T23:25:38.102Z,95391.17
2017-12-13T23:28:06.462Z,95389.66
2017-12-13T23:30:35.576Z,95394.33
2017-12-13T23:33:04.036Z,95397.76
2017-12-13T23:35:32.399Z,95410.23
2017-12-13T23:38:00.748Z,95405.80
2017-12-13T23:40:30.243Z,95388.36
2017-12-13T23:42:58.647Z,95373.79
2017-12-13T23:45:27.016Z,95390.03
2017-12-13T23:47:55.419Z,95398.09
2017-12-13T23:50:23.770Z,95392.38
2017-12-13T23:52:52.083Z,95383.88
2017-12-13T23:55:20.426Z,95389.20
2017-12-13T23:57:48.794Z,95385.34
